sensor_id;sensor_type;location;lat;lon;timestamp;temperature;humidity
16635;DHT22;8431;52.458;9.998;2023-01-29T00:01:55;0.50;99.90
16635;DHT22;8431;52.458;9.998;2023-01-29T00:04:24;0.60;99.90
16635;DHT22;8431;52.458;9.998;2023-01-29T00:06:51;0.60;99.90
16635;DHT22;8431;52.458;9.998;2023-01-29T00:09:18;0.60;99.90
16635;DHT22;8431;52.458;9.998;2023-01-29T00:11:45;0.70;99.90
16635;DHT22;8431;52.458;9.998;2023-01-29T00:14:13;0.80;99.90
16635;DHT22;8431;52.458;9.998;2023-01-29T00:16:40;0.80;99.90
16635;DHT22;8431;52.458;9.998;2023-01-29T00:19:07;0.80;99.90
16635;DHT22;8431;52.458;9.998;2023-01-29T00:21:35;0.80;99.90
16635;DHT22;8431;52.458;9.998;2023-01-29T00:24:02;0.80;99.90
16635;DHT22;8431;52.458;9.998;2023-01-29T00:26:30;0.80;99.90
16635;DHT22;8431;52.458;9.998;2023-01-29T00:28:57;0.90;99.90
16635;DHT22;8431;52.458;9.998;2023-01-29T00:31:25;0.90;99.90
16635;DHT22;8431;52.458;9.998;2023-01-29T00:33:52;0.90;99.90
16635;DHT22;8431;52.458;9.998;2023-01-29T00:36:20;0.80;99.90
16635;DHT22;8431;52.458;9.998;2023-01-29T00:38:53;0.80;99.90
16635;DHT22;8431;52.458;9.998;2023-01-29T00:41:25;0.80;99.90
16635;DHT22;8431;52.458;9.998;2023-01-29T00:44:10;0.90;99.90
16635;DHT22;8431;52.458;9.998;2023-01-29T00:46:55;0.90;99.90
16635;DHT22;8431;52.458;9.998;2023-01-29T00:49:22;0.80;99.90
16635;DHT22;8431;52.458;9.998;2023-01-29T00:51:50;0.80;99.90
16635;DHT22;8431;52.458;9.998;2023-01-29T00:54:32;0.90;99.90
16635;DHT22;8431;52.458;9.998;2023-01-29T00:57:00;0.90;99.90
16635;DHT22;8431;52.458;9.998;2023-01-29T00:59:27;0.90;99.90
16635;DHT22;8431;52.458;9.998;2023-01-29T01:01:54;0.90;99.90
16635;DHT22;8431;52.458;9.998;2023-01-29T01:04:39;0.90;99.90
16635;DHT22;8431;52.458;9.998;2023-01-29T01:07:06;0.90;99.90
16635;DHT22;8431;52.458;9.998;2023-01-29T01:09:35;0.80;99.90
16635;DHT22;8431;52.458;9.998;2023-01-29T01:12:20;0.80;99.90
16635;DHT22;8431;52.458;9.998;2023-01-29T01:14:47;0.80;99.90
16635;DHT22;8431;52.458;9.998;2023-01-29T01:17:14;0.80;99.90
16635;DHT22;8431;52.458;9.998;2023-01-29T01:19:41;0.70;99.90
16635;DHT22;8431;52.458;9.998;2023-01-29T01:22:08;0.50;99.90
16635;DHT22;8431;52.458;9.998;2023-01-29T01:24:37;0.40;99.90
16635;DHT22;8431;52.458;9.998;2023-01-29T01:27:04;0.30;99.90
16635;DHT22;8431;52.458;9.998;2023-01-29T01:29:31;0.20;99.90
16635;DHT22;8431;52.458;9.998;2023-01-29T01:31:58;0.10;99.90
16635;DHT22;8431;52.458;9.998;2023-01-29T01:34:26;0.00;99.90
16635;DHT22;8431;52.458;9.998;2023-01-29T01:36:53;0.00;99.90
16635;DHT22;8431;52.458;9.998;2023-01-29T01:39:20;-0.10;99.90
16635;DHT22;8431;52.458;9.998;2023-01-29T01:41:49;-0.10;99.90
16635;DHT22;8431;52.458;9.998;2023-01-29T01:44:53;-0.10;99.90
16635;DHT22;8431;52.458;9.998;2023-01-29T01:47:25;-0.10;99.90
16635;DHT22;8431;52.458;9.998;2023-01-29T01:49:54;-0.10;99.90
16635;DHT22;8431;52.458;9.998;2023-01-29T01:52:23;-0.10;99.90
16635;DHT22;8431;52.458;9.998;2023-01-29T01:54:50;-0.20;99.90
16635;DHT22;8431;52.458;9.998;2023-01-29T01:57:22;-0.20;99.90
16635;DHT22;8431;52.458;9.998;2023-01-29T01:59:55;-0.20;99.90
16635;DHT22;8431;52.458;9.998;2023-01-29T02:02:24;-0.20;99.90
16635;DHT22;8431;52.458;9.998;2023-01-29T02:05:10;-0.10;99.90
16635;DHT22;8431;52.458;9.998;2023-01-29T02:07:57;0.00;99.90
16635;DHT22;8431;52.458;9.998;2023-01-29T02:10:44;0.10;99.90
16635;DHT22;8431;52.458;9.998;2023-01-29T02:13:13;0.20;99.90
16635;DHT22;8431;52.458;9.998;2023-01-29T02:15:43;0.30;99.90
16635;DHT22;8431;52.458;9.998;2023-01-29T02:18:11;0.30;99.90
16635;DHT22;8431;52.458;9.998;2023-01-29T02:20:42;0.40;99.90
16635;DHT22;8431;52.458;9.998;2023-01-29T02:26:44;0.50;99.90
16635;DHT22;8431;52.458;9.998;2023-01-29T02:29:19;0.60;99.90
16635;DHT22;8431;52.458;9.998;2023-01-29T02:31:55;0.60;99.90
16635;DHT22;8431;52.458;9.998;2023-01-29T02:34:32;0.50;99.90
16635;DHT22;8431;52.458;9.998;2023-01-29T02:37:25;0.60;99.90
16635;DHT22;8431;52.458;9.998;2023-01-29T02:40:04;0.50;99.90
16635;DHT22;8431;52.458;9.998;2023-01-29T02:42:37;0.50;99.90
16635;DHT22;8431;52.458;9.998;2023-01-29T02:45:11;0.50;99.90
16635;DHT22;8431;52.458;9.998;2023-01-29T02:47:44;0.60;99.90
16635;DHT22;8431;52.458;9.998;2023-01-29T02:50:16;0.60;99.90
16635;DHT22;8431;52.458;9.998;2023-01-29T02:52:50;0.60;99.90
16635;DHT22;8431;52.458;9.998;2023-01-29T02:55:24;0.60;99.90
16635;DHT22;8431;52.458;9.998;2023-01-29T02:57:58;0.60;99.90
16635;DHT22;8431;52.458;9.998;2023-01-29T03:00:31;0.60;99.90
16635;DHT22;8431;52.458;9.998;2023-01-29T03:03:02;0.60;99.90
16635;DHT22;8431;52.458;9.998;2023-01-29T03:05:34;0.60;99.90
16635;DHT22;8431;52.458;9.998;2023-01-29T03:08:09;0.70;99.90
16635;DHT22;8431;52.458;9.998;2023-01-29T03:10:42;0.60;99.90
16635;DHT22;8431;52.458;9.998;2023-01-29T03:13:17;0.60;99.90
16635;DHT22;8431;52.458;9.998;2023-01-29T03:15:49;0.60;99.90
16635;DHT22;8431;52.458;9.998;2023-01-29T03:18:28;0.60;99.90
16635;DHT22;8431;52.458;9.998;2023-01-29T03:20:59;0.60;99.90
16635;DHT22;8431;52.458;9.998;2023-01-29T03:23:31;0.70;99.90
16635;DHT22;8431;52.458;9.998;2023-01-29T03:26:20;0.70;99.90
16635;DHT22;8431;52.458;9.998;2023-01-29T03:29:06;0.70;99.90
16635;DHT22;8431;52.458;9.998;2023-01-29T03:31:54;0.70;99.90
16635;DHT22;8431;52.458;9.998;2023-01-29T03:34:35;0.80;99.90
16635;DHT22;8431;52.458;9.998;2023-01-29T03:37:07;0.80;99.90
16635;DHT22;8431;52.458;9.998;2023-01-29T03:39:35;0.70;99.90
16635;DHT22;8431;52.458;9.998;2023-01-29T03:42:07;0.70;99.90
16635;DHT22;8431;52.458;9.998;2023-01-29T03:44:44;0.70;99.90
16635;DHT22;8431;52.458;9.998;2023-01-29T03:47:19;0.60;99.90
16635;DHT22;8431;52.458;9.998;2023-01-29T03:49:56;0.60;99.90
16635;DHT22;8431;52.458;9.998;2023-01-29T03:52:27;0.60;99.90
16635;DHT22;8431;52.458;9.998;2023-01-29T03:55:04;0.60;99.90
16635;DHT22;8431;52.458;9.998;2023-01-29T03:57:37;0.70;99.90
16635;DHT22;8431;52.458;9.998;2023-01-29T04:00:08;0.70;99.90
16635;DHT22;8431;52.458;9.998;2023-01-29T04:02:45;0.70;99.90
16635;DHT22;8431;52.458;9.998;2023-01-29T04:05:17;0.70;99.90
16635;DHT22;8431;52.458;9.998;2023-01-29T04:07:46;0.70;99.90
16635;DHT22;8431;52.458;9.998;2023-01-29T04:10:17;0.70;99.90
16635;DHT22;8431;52.458;9.998;2023-01-29T04:12:49;0.80;99.90
16635;DHT22;8431;52.458;9.998;2023-01-29T04:15:18;0.80;99.90
16635;DHT22;8431;52.458;9.998;2023-01-29T04:17:49;0.80;99.90
16635;DHT22;8431;52.458;9.998;2023-01-29T04:20:17;0.90;99.90
16635;DHT22;8431;52.458;9.998;2023-01-29T04:22:46;0.80;99.90
16635;DHT22;8431;52.458;9.998;2023-01-29T04:25:15;0.80;99.90
16635;DHT22;8431;52.458;9.998;2023-01-29T04:27:48;0.80;99.90
16635;DHT22;8431;52.458;9.998;2023-01-29T04:30:25;0.80;99.90
16635;DHT22;8431;52.458;9.998;2023-01-29T04:33:04;0.90;99.90
16635;DHT22;8431;52.458;9.998;2023-01-29T04:35:43;0.90;99.90
16635;DHT22;8431;52.458;9.998;2023-01-29T04:38:24;1.00;99.90
16635;DHT22;8431;52.458;9.998;2023-01-29T04:41:02;1.00;99.90
16635;DHT22;8431;52.458;9.998;2023-01-29T04:43:36;1.00;99.90
16635;DHT22;8431;52.458;9.998;2023-01-29T04:46:11;1.00;99.90
16635;DHT22;8431;52.458;9.998;2023-01-29T04:48:48;1.10;99.90
16635;DHT22;8431;52.458;9.998;2023-01-29T04:51:24;1.10;99.90
16635;DHT22;8431;52.458;9.998;2023-01-29T04:53:57;1.10;99.90
16635;DHT22;8431;52.458;9.998;2023-01-29T04:56:29;1.10;99.90
16635;DHT22;8431;52.458;9.998;2023-01-29T04:59:03;1.10;99.90
16635;DHT22;8431;52.458;9.998;2023-01-29T05:01:32;1.10;99.90
16635;DHT22;8431;52.458;9.998;2023-01-29T05:04:04;1.10;99.90
16635;DHT22;8431;52.458;9.998;2023-01-29T05:06:35;1.10;99.90
16635;DHT22;8431;52.458;9.998;2023-01-29T05:09:02;1.10;99.90
16635;DHT22;8431;52.458;9.998;2023-01-29T05:11:30;1.10;99.90
16635;DHT22;8431;52.458;9.998;2023-01-29T05:13:58;1.00;99.90
16635;DHT22;8431;52.458;9.998;2023-01-29T05:16:28;1.00;99.90
16635;DHT22;8431;52.458;9.998;2023-01-29T05:19:08;1.00;99.90
16635;DHT22;8431;52.458;9.998;2023-01-29T05:21:35;1.00;99.90
16635;DHT22;8431;52.458;9.998;2023-01-29T05:24:09;0.90;99.90
16635;DHT22;8431;52.458;9.998;2023-01-29T05:26:37;0.80;99.90
16635;DHT22;8431;52.458;9.998;2023-01-29T05:29:21;0.80;99.90
16635;DHT22;8431;52.458;9.998;2023-01-29T05:31:48;0.80;99.90
16635;DHT22;8431;52.458;9.998;2023-01-29T05:34:16;0.80;99.90
16635;DHT22;8431;52.458;9.998;2023-01-29T05:36:43;0.80;99.90
16635;DHT22;8431;52.458;9.998;2023-01-29T05:39:10;0.90;99.90
16635;DHT22;8431;52.458;9.998;2023-01-29T05:41:37;0.90;99.90
16635;DHT22;8431;52.458;9.998;2023-01-29T05:44:04;0.90;99.90
16635;DHT22;8431;52.458;9.998;2023-01-29T05:46:31;0.90;99.90
16635;DHT22;8431;52.458;9.998;2023-01-29T05:48:58;0.90;99.90
16635;DHT22;8431;52.458;9.998;2023-01-29T05:51:27;0.80;99.90
16635;DHT22;8431;52.458;9.998;2023-01-29T05:53:54;0.80;99.90
16635;DHT22;8431;52.458;9.998;2023-01-29T05:56:21;0.70;99.90
16635;DHT22;8431;52.458;9.998;2023-01-29T05:58:48;0.70;99.90
16635;DHT22;8431;52.458;9.998;2023-01-29T06:01:16;0.70;99.90
16635;DHT22;8431;52.458;9.998;2023-01-29T06:03:44;0.80;99.90
16635;DHT22;8431;52.458;9.998;2023-01-29T06:06:11;0.80;99.90
16635;DHT22;8431;52.458;9.998;2023-01-29T06:08:40;0.80;99.90
16635;DHT22;8431;52.458;9.998;2023-01-29T06:11:09;0.80;99.90
16635;DHT22;8431;52.458;9.998;2023-01-29T06:13:36;0.80;99.90
16635;DHT22;8431;52.458;9.998;2023-01-29T06:16:04;0.70;99.90
16635;DHT22;8431;52.458;9.998;2023-01-29T06:18:31;0.80;99.90
16635;DHT22;8431;52.458;9.998;2023-01-29T06:21:00;0.70;99.90
16635;DHT22;8431;52.458;9.998;2023-01-29T06:23:27;0.80;99.90
16635;DHT22;8431;52.458;9.998;2023-01-29T06:25:59;0.80;99.90
16635;DHT22;8431;52.458;9.998;2023-01-29T06:28:26;0.80;99.90
16635;DHT22;8431;52.458;9.998;2023-01-29T06:30:56;0.80;99.90
16635;DHT22;8431;52.458;9.998;2023-01-29T06:33:24;0.90;99.90
16635;DHT22;8431;52.458;9.998;2023-01-29T06:35:55;0.90;99.90
16635;DHT22;8431;52.458;9.998;2023-01-29T06:38:22;0.90;99.90
16635;DHT22;8431;52.458;9.998;2023-01-29T06:40:49;0.90;99.90
16635;DHT22;8431;52.458;9.998;2023-01-29T06:43:18;0.90;99.90
16635;DHT22;8431;52.458;9.998;2023-01-29T06:45:47;0.90;99.90
16635;DHT22;8431;52.458;9.998;2023-01-29T06:48:14;0.90;99.90
16635;DHT22;8431;52.458;9.998;2023-01-29T06:50:41;1.00;99.90
16635;DHT22;8431;52.458;9.998;2023-01-29T06:53:08;1.00;99.90
16635;DHT22;8431;52.458;9.998;2023-01-29T06:55:35;1.00;99.90
16635;DHT22;8431;52.458;9.998;2023-01-29T06:58:04;1.00;99.90
16635;DHT22;8431;52.458;9.998;2023-01-29T07:00:34;1.00;99.90
16635;DHT22;8431;52.458;9.998;2023-01-29T07:03:02;1.10;99.90
16635;DHT22;8431;52.458;9.998;2023-01-29T07:05:29;1.10;99.90
16635;DHT22;8431;52.458;9.998;2023-01-29T07:07:56;1.20;99.90
16635;DHT22;8431;52.458;9.998;2023-01-29T07:10:24;1.30;99.90
16635;DHT22;8431;52.458;9.998;2023-01-29T07:12:52;1.30;99.90
16635;DHT22;8431;52.458;9.998;2023-01-29T07:15:19;1.30;99.90
16635;DHT22;8431;52.458;9.998;2023-01-29T07:17:56;1.40;99.90
16635;DHT22;8431;52.458;9.998;2023-01-29T07:20:24;1.40;99.90
16635;DHT22;8431;52.458;9.998;2023-01-29T07:22:52;1.50;99.90
16635;DHT22;8431;52.458;9.998;2023-01-29T07:25:19;1.50;99.90
16635;DHT22;8431;52.458;9.998;2023-01-29T07:27:46;1.50;99.90
16635;DHT22;8431;52.458;9.998;2023-01-29T07:30:14;1.50;99.90
16635;DHT22;8431;52.458;9.998;2023-01-29T07:32:42;1.50;99.90
16635;DHT22;8431;52.458;9.998;2023-01-29T07:35:10;1.40;99.90
16635;DHT22;8431;52.458;9.998;2023-01-29T07:37:37;1.30;99.90
16635;DHT22;8431;52.458;9.998;2023-01-29T07:40:05;1.30;99.90
16635;DHT22;8431;52.458;9.998;2023-01-29T07:42:36;1.30;99.90
16635;DHT22;8431;52.458;9.998;2023-01-29T07:45:05;1.30;99.90
16635;DHT22;8431;52.458;9.998;2023-01-29T07:47:32;1.30;99.90
16635;DHT22;8431;52.458;9.998;2023-01-29T07:49:59;1.30;99.90
16635;DHT22;8431;52.458;9.998;2023-01-29T07:52:28;1.30;99.90
16635;DHT22;8431;52.458;9.998;2023-01-29T07:54:55;1.30;99.90
16635;DHT22;8431;52.458;9.998;2023-01-29T07:57:22;1.40;99.90
16635;DHT22;8431;52.458;9.998;2023-01-29T07:59:50;1.30;99.90
16635;DHT22;8431;52.458;9.998;2023-01-29T08:02:17;1.40;99.90
16635;DHT22;8431;52.458;9.998;2023-01-29T08:04:44;1.50;99.90
16635;DHT22;8431;52.458;9.998;2023-01-29T08:07:10;1.40;99.90
16635;DHT22;8431;52.458;9.998;2023-01-29T08:09:39;1.40;99.90
16635;DHT22;8431;52.458;9.998;2023-01-29T08:12:06;1.40;99.90
16635;DHT22;8431;52.458;9.998;2023-01-29T08:14:33;1.40;99.90
16635;DHT22;8431;52.458;9.998;2023-01-29T08:17:00;1.30;99.90
16635;DHT22;8431;52.458;9.998;2023-01-29T08:19:27;1.30;99.90
16635;DHT22;8431;52.458;9.998;2023-01-29T08:21:54;1.30;99.90
16635;DHT22;8431;52.458;9.998;2023-01-29T08:24:21;1.30;99.90
16635;DHT22;8431;52.458;9.998;2023-01-29T08:26:49;1.40;99.90
16635;DHT22;8431;52.458;9.998;2023-01-29T08:29:16;1.50;99.90
16635;DHT22;8431;52.458;9.998;2023-01-29T08:31:43;1.40;99.90
16635;DHT22;8431;52.458;9.998;2023-01-29T08:34:10;1.50;99.90
16635;DHT22;8431;52.458;9.998;2023-01-29T08:36:37;1.50;99.90
16635;DHT22;8431;52.458;9.998;2023-01-29T08:39:04;1.50;99.90
16635;DHT22;8431;52.458;9.998;2023-01-29T08:41:31;1.50;99.90
16635;DHT22;8431;52.458;9.998;2023-01-29T08:43:59;1.50;99.90
16635;DHT22;8431;52.458;9.998;2023-01-29T08:46:29;1.50;99.90
16635;DHT22;8431;52.458;9.998;2023-01-29T08:48:56;1.50;99.90
16635;DHT22;8431;52.458;9.998;2023-01-29T08:51:24;1.50;99.90
16635;DHT22;8431;52.458;9.998;2023-01-29T08:53:51;1.50;99.90
16635;DHT22;8431;52.458;9.998;2023-01-29T08:56:18;1.60;99.90
16635;DHT22;8431;52.458;9.998;2023-01-29T08:58:45;1.60;99.90
16635;DHT22;8431;52.458;9.998;2023-01-29T09:01:14;1.60;99.90
16635;DHT22;8431;52.458;9.998;2023-01-29T09:03:41;1.60;99.90
16635;DHT22;8431;52.458;9.998;2023-01-29T09:06:10;1.60;99.90
16635;DHT22;8431;52.458;9.998;2023-01-29T09:08:38;1.70;99.90
16635;DHT22;8431;52.458;9.998;2023-01-29T09:11:05;1.50;99.90
16635;DHT22;8431;52.458;9.998;2023-01-29T09:13:33;1.50;99.90
16635;DHT22;8431;52.458;9.998;2023-01-29T09:16:01;1.30;99.90
16635;DHT22;8431;52.458;9.998;2023-01-29T09:18:30;1.20;99.90
16635;DHT22;8431;52.458;9.998;2023-01-29T09:20:57;1.30;99.90
16635;DHT22;8431;52.458;9.998;2023-01-29T09:23:26;1.30;99.90
16635;DHT22;8431;52.458;9.998;2023-01-29T09:25:53;1.40;99.90
16635;DHT22;8431;52.458;9.998;2023-01-29T09:28:20;1.30;99.90
16635;DHT22;8431;52.458;9.998;2023-01-29T09:30:47;1.40;99.90
16635;DHT22;8431;52.458;9.998;2023-01-29T09:33:14;1.40;99.90
16635;DHT22;8431;52.458;9.998;2023-01-29T09:35:43;1.40;99.90
16635;DHT22;8431;52.458;9.998;2023-01-29T09:38:11;1.50;99.90
16635;DHT22;8431;52.458;9.998;2023-01-29T09:40:45;1.60;99.90
16635;DHT22;8431;52.458;9.998;2023-01-29T09:43:18;1.60;99.90
16635;DHT22;8431;52.458;9.998;2023-01-29T09:45:52;1.70;99.90
16635;DHT22;8431;52.458;9.998;2023-01-29T09:48:22;1.60;99.90
16635;DHT22;8431;52.458;9.998;2023-01-29T09:50:53;1.70;99.90
16635;DHT22;8431;52.458;9.998;2023-01-29T09:53:26;1.70;99.90
16635;DHT22;8431;52.458;9.998;2023-01-29T09:55:58;1.70;99.90
16635;DHT22;8431;52.458;9.998;2023-01-29T09:58:28;1.70;99.90
16635;DHT22;8431;52.458;9.998;2023-01-29T10:01:05;1.80;99.90
16635;DHT22;8431;52.458;9.998;2023-01-29T10:06:49;1.80;99.90
16635;DHT22;8431;52.458;9.998;2023-01-29T10:10:02;1.90;99.90
16635;DHT22;8431;52.458;9.998;2023-01-29T10:12:43;2.00;99.90
16635;DHT22;8431;52.458;9.998;2023-01-29T10:15:18;2.00;99.90
16635;DHT22;8431;52.458;9.998;2023-01-29T10:17:59;2.00;99.90
16635;DHT22;8431;52.458;9.998;2023-01-29T10:20:42;2.00;99.90
16635;DHT22;8431;52.458;9.998;2023-01-29T10:23:20;2.00;99.90
16635;DHT22;8431;52.458;9.998;2023-01-29T10:25:49;2.10;99.90
16635;DHT22;8431;52.458;9.998;2023-01-29T10:28:20;2.00;99.90
16635;DHT22;8431;52.458;9.998;2023-01-29T10:30:50;2.10;99.90
16635;DHT22;8431;52.458;9.998;2023-01-29T10:33:26;2.10;99.90
16635;DHT22;8431;52.458;9.998;2023-01-29T10:35:59;2.10;99.90
16635;DHT22;8431;52.458;9.998;2023-01-29T10:38:35;2.20;99.90
16635;DHT22;8431;52.458;9.998;2023-01-29T10:41:18;2.20;99.90
16635;DHT22;8431;52.458;9.998;2023-01-29T10:43:57;2.20;99.90
16635;DHT22;8431;52.458;9.998;2023-01-29T10:46:38;2.30;99.90
16635;DHT22;8431;52.458;9.998;2023-01-29T10:49:19;2.30;99.90
16635;DHT22;8431;52.458;9.998;2023-01-29T10:54:59;2.30;99.90
16635;DHT22;8431;52.458;9.998;2023-01-29T10:57:51;2.30;99.90
16635;DHT22;8431;52.458;9.998;2023-01-29T11:00:23;2.40;99.90
16635;DHT22;8431;52.458;9.998;2023-01-29T11:02:51;2.50;99.90
16635;DHT22;8431;52.458;9.998;2023-01-29T11:05:22;2.50;99.90
16635;DHT22;8431;52.458;9.998;2023-01-29T11:08:00;2.60;99.90
16635;DHT22;8431;52.458;9.998;2023-01-29T11:10:32;2.50;99.90
16635;DHT22;8431;52.458;9.998;2023-01-29T11:13:04;2.60;99.90
16635;DHT22;8431;52.458;9.998;2023-01-29T11:15:32;2.80;99.90
16635;DHT22;8431;52.458;9.998;2023-01-29T11:18:05;2.80;99.90
16635;DHT22;8431;52.458;9.998;2023-01-29T11:20:35;2.80;99.90
16635;DHT22;8431;52.458;9.998;2023-01-29T11:23:02;2.70;99.90
16635;DHT22;8431;52.458;9.998;2023-01-29T11:25:31;2.70;99.90
16635;DHT22;8431;52.458;9.998;2023-01-29T11:28:00;2.80;99.90
16635;DHT22;8431;52.458;9.998;2023-01-29T11:30:28;2.70;99.90
16635;DHT22;8431;52.458;9.998;2023-01-29T11:33:04;2.80;99.90
16635;DHT22;8431;52.458;9.998;2023-01-29T11:35:33;2.80;99.90
16635;DHT22;8431;52.458;9.998;2023-01-29T11:38:16;2.80;99.90
16635;DHT22;8431;52.458;9.998;2023-01-29T11:40:45;2.80;99.90
16635;DHT22;8431;52.458;9.998;2023-01-29T11:43:22;2.70;99.90
16635;DHT22;8431;52.458;9.998;2023-01-29T11:45:56;2.80;99.90
16635;DHT22;8431;52.458;9.998;2023-01-29T11:48:32;2.80;99.90
16635;DHT22;8431;52.458;9.998;2023-01-29T11:51:00;2.80;99.90
16635;DHT22;8431;52.458;9.998;2023-01-29T11:53:36;2.90;99.90
16635;DHT22;8431;52.458;9.998;2023-01-29T11:56:16;2.90;99.90
16635;DHT22;8431;52.458;9.998;2023-01-29T11:58:45;3.10;99.90
16635;DHT22;8431;52.458;9.998;2023-01-29T12:01:15;3.20;99.90
16635;DHT22;8431;52.458;9.998;2023-01-29T12:03:46;3.20;99.90
16635;DHT22;8431;52.458;9.998;2023-01-29T12:06:18;3.20;99.90
16635;DHT22;8431;52.458;9.998;2023-01-29T12:08:53;3.30;99.90
16635;DHT22;8431;52.458;9.998;2023-01-29T12:11:27;3.20;99.90
16635;DHT22;8431;52.458;9.998;2023-01-29T12:13:56;3.30;99.90
16635;DHT22;8431;52.458;9.998;2023-01-29T12:16:26;3.20;99.90
16635;DHT22;8431;52.458;9.998;2023-01-29T12:18:59;3.10;99.90
16635;DHT22;8431;52.458;9.998;2023-01-29T12:21:34;3.10;99.90
16635;DHT22;8431;52.458;9.998;2023-01-29T12:24:13;3.10;99.90
16635;DHT22;8431;52.458;9.998;2023-01-29T12:26:49;3.00;99.90
16635;DHT22;8431;52.458;9.998;2023-01-29T12:29:26;3.00;99.90
16635;DHT22;8431;52.458;9.998;2023-01-29T12:32:04;2.90;99.90
16635;DHT22;8431;52.458;9.998;2023-01-29T12:34:36;2.90;99.90
16635;DHT22;8431;52.458;9.998;2023-01-29T12:37:13;2.90;99.90
16635;DHT22;8431;52.458;9.998;2023-01-29T12:39:42;2.90;99.90
16635;DHT22;8431;52.458;9.998;2023-01-29T12:42:14;2.90;99.90
16635;DHT22;8431;52.458;9.998;2023-01-29T12:44:44;2.90;99.90
16635;DHT22;8431;52.458;9.998;2023-01-29T12:47:16;2.90;99.90
16635;DHT22;8431;52.458;9.998;2023-01-29T12:49:49;2.90;99.90
16635;DHT22;8431;52.458;9.998;2023-01-29T12:52:20;2.90;99.90
16635;DHT22;8431;52.458;9.998;2023-01-29T12:54:52;2.90;99.90
16635;DHT22;8431;52.458;9.998;2023-01-29T12:57:28;3.00;99.90
16635;DHT22;8431;52.458;9.998;2023-01-29T13:00:02;2.90;99.90
16635;DHT22;8431;52.458;9.998;2023-01-29T13:02:34;3.00;99.90
16635;DHT22;8431;52.458;9.998;2023-01-29T13:05:06;2.90;99.90
16635;DHT22;8431;52.458;9.998;2023-01-29T13:07:41;2.90;99.90
16635;DHT22;8431;52.458;9.998;2023-01-29T13:10:15;2.90;99.90
16635;DHT22;8431;52.458;9.998;2023-01-29T13:12:51;2.90;99.90
16635;DHT22;8431;52.458;9.998;2023-01-29T13:15:27;3.00;99.90
16635;DHT22;8431;52.458;9.998;2023-01-29T13:17:58;3.00;99.90
16635;DHT22;8431;52.458;9.998;2023-01-29T13:20:30;3.00;99.90
16635;DHT22;8431;52.458;9.998;2023-01-29T13:23:05;3.00;99.90
16635;DHT22;8431;52.458;9.998;2023-01-29T13:25:38;3.10;99.90
16635;DHT22;8431;52.458;9.998;2023-01-29T13:28:15;3.10;99.90
16635;DHT22;8431;52.458;9.998;2023-01-29T13:30:42;3.10;99.90
16635;DHT22;8431;52.458;9.998;2023-01-29T13:33:17;3.20;99.90
16635;DHT22;8431;52.458;9.998;2023-01-29T13:35:46;3.30;99.90
16635;DHT22;8431;52.458;9.998;2023-01-29T13:38:23;3.40;99.90
16635;DHT22;8431;52.458;9.998;2023-01-29T13:40:52;3.50;99.90
16635;DHT22;8431;52.458;9.998;2023-01-29T13:43:22;3.50;99.90
16635;DHT22;8431;52.458;9.998;2023-01-29T13:45:51;3.50;99.90
16635;DHT22;8431;52.458;9.998;2023-01-29T13:48:23;3.30;99.90
16635;DHT22;8431;52.458;9.998;2023-01-29T13:50:52;3.30;99.90
16635;DHT22;8431;52.458;9.998;2023-01-29T13:53:23;3.10;99.90
16635;DHT22;8431;52.458;9.998;2023-01-29T13:55:50;2.90;99.90
16635;DHT22;8431;52.458;9.998;2023-01-29T13:58:54;2.90;99.90
16635;DHT22;8431;52.458;9.998;2023-01-29T14:04:23;2.80;99.90
16635;DHT22;8431;52.458;9.998;2023-01-29T14:06:53;2.80;99.90
16635;DHT22;8431;52.458;9.998;2023-01-29T14:12:45;2.70;99.90
16635;DHT22;8431;52.458;9.998;2023-01-29T14:15:20;2.70;99.90
16635;DHT22;8431;52.458;9.998;2023-01-29T14:18:15;2.60;99.90
16635;DHT22;8431;52.458;9.998;2023-01-29T14:21:16;2.60;99.90
16635;DHT22;8431;52.458;9.998;2023-01-29T14:23:47;2.60;99.90
16635;DHT22;8431;52.458;9.998;2023-01-29T14:26:25;2.60;99.90
16635;DHT22;8431;52.458;9.998;2023-01-29T14:28:58;2.50;99.90
16635;DHT22;8431;52.458;9.998;2023-01-29T14:31:39;2.50;99.90
16635;DHT22;8431;52.458;9.998;2023-01-29T14:34:14;2.50;99.90
16635;DHT22;8431;52.458;9.998;2023-01-29T14:36:44;2.50;99.90
16635;DHT22;8431;52.458;9.998;2023-01-29T14:39:21;2.60;99.90
16635;DHT22;8431;52.458;9.998;2023-01-29T14:41:49;2.50;99.90
16635;DHT22;8431;52.458;9.998;2023-01-29T14:44:45;2.60;99.90
16635;DHT22;8431;52.458;9.998;2023-01-29T14:47:18;2.60;99.90
16635;DHT22;8431;52.458;9.998;2023-01-29T14:49:53;2.50;99.90
16635;DHT22;8431;52.458;9.998;2023-01-29T14:52:23;2.50;99.90
16635;DHT22;8431;52.458;9.998;2023-01-29T14:54:53;2.50;99.90
16635;DHT22;8431;52.458;9.998;2023-01-29T14:57:23;2.50;99.90
16635;DHT22;8431;52.458;9.998;2023-01-29T14:59:55;2.50;99.90
16635;DHT22;8431;52.458;9.998;2023-01-29T15:02:26;2.50;99.90
16635;DHT22;8431;52.458;9.998;2023-01-29T15:04:59;2.50;99.90
16635;DHT22;8431;52.458;9.998;2023-01-29T15:07:31;2.60;99.90
16635;DHT22;8431;52.458;9.998;2023-01-29T15:10:05;2.60;99.90
16635;DHT22;8431;52.458;9.998;2023-01-29T15:12:39;2.50;99.90
16635;DHT22;8431;52.458;9.998;2023-01-29T15:15:15;2.50;99.90
16635;DHT22;8431;52.458;9.998;2023-01-29T15:17:53;2.50;99.90
16635;DHT22;8431;52.458;9.998;2023-01-29T15:20:30;2.60;99.90
16635;DHT22;8431;52.458;9.998;2023-01-29T15:22:57;2.60;99.90
16635;DHT22;8431;52.458;9.998;2023-01-29T15:25:26;2.50;99.90
16635;DHT22;8431;52.458;9.998;2023-01-29T15:27:56;2.50;99.90
16635;DHT22;8431;52.458;9.998;2023-01-29T15:30:31;2.50;99.90
16635;DHT22;8431;52.458;9.998;2023-01-29T15:33:00;2.50;99.90
16635;DHT22;8431;52.458;9.998;2023-01-29T15:35:30;2.50;99.90
16635;DHT22;8431;52.458;9.998;2023-01-29T15:38:01;2.40;99.90
16635;DHT22;8431;52.458;9.998;2023-01-29T15:40:28;2.40;99.90
16635;DHT22;8431;52.458;9.998;2023-01-29T15:42:56;2.30;99.90
16635;DHT22;8431;52.458;9.998;2023-01-29T15:45:26;2.20;99.90
16635;DHT22;8431;52.458;9.998;2023-01-29T15:48:00;2.20;99.90
16635;DHT22;8431;52.458;9.998;2023-01-29T15:50:28;2.10;99.90
16635;DHT22;8431;52.458;9.998;2023-01-29T15:52:58;2.00;99.90
16635;DHT22;8431;52.458;9.998;2023-01-29T15:55:27;1.90;99.90
16635;DHT22;8431;52.458;9.998;2023-01-29T15:57:56;1.90;99.90
16635;DHT22;8431;52.458;9.998;2023-01-29T16:00:25;1.90;99.90
16635;DHT22;8431;52.458;9.998;2023-01-29T16:02:53;1.90;99.90
16635;DHT22;8431;52.458;9.998;2023-01-29T16:05:24;1.90;99.90
16635;DHT22;8431;52.458;9.998;2023-01-29T16:07:54;1.90;99.90
16635;DHT22;8431;52.458;9.998;2023-01-29T16:10:24;1.90;99.90
16635;DHT22;8431;52.458;9.998;2023-01-29T16:12:52;1.90;99.90
16635;DHT22;8431;52.458;9.998;2023-01-29T16:15:27;1.90;99.90
16635;DHT22;8431;52.458;9.998;2023-01-29T16:17:56;1.90;99.90
16635;DHT22;8431;52.458;9.998;2023-01-29T16:20:37;1.90;99.90
16635;DHT22;8431;52.458;9.998;2023-01-29T16:23:07;1.90;99.90
16635;DHT22;8431;52.458;9.998;2023-01-29T16:25:41;1.90;99.90
16635;DHT22;8431;52.458;9.998;2023-01-29T16:28:09;1.90;99.90
16635;DHT22;8431;52.458;9.998;2023-01-29T16:30:37;1.90;99.90
16635;DHT22;8431;52.458;9.998;2023-01-29T16:33:06;1.90;99.90
16635;DHT22;8431;52.458;9.998;2023-01-29T16:35:35;1.90;99.90
16635;DHT22;8431;52.458;9.998;2023-01-29T16:38:12;1.90;99.90
16635;DHT22;8431;52.458;9.998;2023-01-29T16:41:06;1.90;99.90
16635;DHT22;8431;52.458;9.998;2023-01-29T16:43:50;1.90;99.90
16635;DHT22;8431;52.458;9.998;2023-01-29T16:46:23;2.00;99.90
16635;DHT22;8431;52.458;9.998;2023-01-29T16:48:51;1.90;99.90